Lake Ozette, Washington
Current Conditions -  °F | °C
As of 6:16 AM on Monday 20 Oct 2014 (Local Time) from KUIL Reporting Station
Heavy Rain Heavy Rain  
Wind Chill: 56°   Ceiling: 2200
Heat Index: 56°   Visibility: 0.75mi
Dew Point: 55°   Wind: 5mph
Humidity: 97%   Direction: NA
Pressure: 29.65"   Gusts: NA
Location:  48.1788°N, 124.127°W
Report Text: KUIL 201316Z AUTO VRB04KT 3/4SM +RA BR SCT008 BKN022 OVC031 13/13 A2965 RMK AO2 P0015 T01330128
Loading
Personal Weather Stations






























Interactive Weather Map
Tropical Storm Tracking
New forecast layout! Learn more

10-Day Weather Forecast

Advertisements
Track Severe Weather on mobile